createdAt,value
2022-10-15T00:00:24.999Z,101679.97
2022-10-15T00:04:26.660Z,101681.16
2022-10-15T00:08:26.133Z,101682.19
2022-10-15T00:12:25.345Z,101683.72
2022-10-15T00:16:27.081Z,101687.00
2022-10-15T00:20:28.714Z,101693.97
2022-10-15T00:24:28.237Z,101692.00
2022-10-15T00:28:31.857Z,101688.66
2022-10-15T00:32:34.286Z,101694.00
2022-10-15T00:36:39.880Z,101684.31
2022-10-15T00:40:39.471Z,101684.06
2022-10-15T00:44:49.746Z,101688.28
2022-10-15T00:48:52.169Z,101679.63
2022-10-15T00:53:02.956Z,101677.91
2022-10-15T00:57:03.947Z,101681.13
2022-10-15T01:01:03.020Z,101688.09
2022-10-15T01:05:02.522Z,101618.34
2022-10-15T01:09:04.568Z,101683.31
2022-10-15T01:13:16.268Z,101682.31
2022-10-15T01:17:24.151Z,101665.75
2022-10-15T01:21:31.202Z,101669.94
2022-10-15T01:25:50.890Z,101669.53
2022-10-15T01:30:07.500Z,101688.03
2022-10-15T01:38:27.704Z,101676.38
2022-10-15T01:42:32.431Z,101671.00
2022-10-15T01:46:39.054Z,101680.81
2022-10-15T01:50:46.117Z,101678.03
2022-10-15T01:54:48.031Z,101685.78
2022-10-15T01:58:51.049Z,101678.19
2022-10-15T02:02:51.046Z,101682.25
2022-10-15T02:06:59.887Z,101682.28
2022-10-15T02:11:04.926Z,101665.38
2022-10-15T02:15:13.327Z,101683.72
2022-10-15T02:19:20.123Z,101616.47
2022-10-15T02:23:24.044Z,101667.72
2022-10-15T02:27:24.225Z,101665.59
2022-10-15T02:31:25.825Z,101686.13
2022-10-15T02:35:26.663Z,101686.91
2022-10-15T02:39:28.616Z,101692.38
2022-10-15T02:43:28.281Z,101690.84
2022-10-15T02:47:28.378Z,101692.03
2022-10-15T02:51:27.375Z,101688.50
2022-10-15T02:55:29.181Z,101692.63
2022-10-15T02:59:31.401Z,101691.69
2022-10-15T03:03:31.402Z,101693.19
2022-10-15T03:07:31.429Z,101688.56
2022-10-15T03:11:34.396Z,101688.28
2022-10-15T03:15:34.172Z,101692.53
2022-10-15T03:19:34.713Z,101703.56
2022-10-15T03:23:34.624Z,101697.59
2022-10-15T03:27:37.620Z,101694.94
2022-10-15T03:31:42.514Z,101696.38
2022-10-15T03:35:42.755Z,101703.16
2022-10-15T03:39:43.761Z,101697.59
2022-10-15T03:43:46.527Z,101698.75
2022-10-15T03:47:47.981Z,101690.19
2022-10-15T03:51:47.151Z,101699.03
2022-10-15T03:55:46.873Z,101699.69
2022-10-15T03:59:48.046Z,101697.72
2022-10-15T04:03:48.499Z,101703.19
2022-10-15T04:07:48.495Z,101701.88
2022-10-15T04:11:50.993Z,101700.91
2022-10-15T04:15:52.658Z,101706.13
2022-10-15T04:19:52.256Z,101708.66
2022-10-15T04:23:52.464Z,101705.97
2022-10-15T04:27:53.374Z,101708.47
2022-10-15T04:31:55.328Z,101708.28
2022-10-15T04:36:01.746Z,101641.47
2022-10-15T04:40:03.027Z,101710.88
2022-10-15T04:44:02.977Z,101714.16
2022-10-15T04:48:04.450Z,101718.94
2022-10-15T04:52:04.431Z,101721.97
2022-10-15T04:56:05.685Z,101721.81
2022-10-15T05:00:05.875Z,101725.03
2022-10-15T05:04:12.623Z,101727.63
2022-10-15T05:08:12.003Z,101732.72
2022-10-15T05:12:15.991Z,101705.09
2022-10-15T05:16:16.782Z,101729.81
2022-10-15T05:20:19.864Z,101724.84
2022-10-15T05:24:19.474Z,101732.56
2022-10-15T05:28:19.501Z,101685.13
2022-10-15T05:36:27.989Z,101744.06
2022-10-15T05:40:27.511Z,101726.84
2022-10-15T05:44:30.595Z,101741.41
2022-10-15T05:48:31.546Z,101742.34
2022-10-15T05:52:34.452Z,101711.38
2022-10-15T05:56:38.725Z,101735.09
2022-10-15T06:00:47.286Z,101741.28
2022-10-15T06:04:49.092Z,101699.00
2022-10-15T06:08:52.078Z,101701.59
2022-10-15T06:12:52.726Z,101766.28
2022-10-15T06:16:54.371Z,101769.75
2022-10-15T06:20:54.622Z,101778.47
2022-10-15T06:24:56.563Z,101778.06
2022-10-15T06:28:59.240Z,101782.84
2022-10-15T06:33:00.065Z,101780.41
2022-10-15T06:36:59.992Z,101778.00
2022-10-15T06:41:02.377Z,101738.59
2022-10-15T07:08:19.319Z,101787.97
2022-10-15T07:18:55.068Z,101776.47
2022-10-15T07:23:01.919Z,101788.06
2022-10-15T07:27:08.377Z,101744.91
2022-10-15T07:31:16.376Z,101780.66
2022-10-15T07:35:18.977Z,101751.13
2022-10-15T07:39:19.408Z,101715.28
2022-10-15T07:43:22.488Z,101789.44
2022-10-15T07:47:22.450Z,101791.00
2022-10-15T07:51:26.566Z,101786.47
2022-10-15T07:55:26.288Z,101784.63
2022-10-15T07:59:26.554Z,101781.41
2022-10-15T08:03:26.570Z,101791.91
2022-10-15T08:07:31.745Z,101792.69
2022-10-15T08:11:31.667Z,101797.50
2022-10-15T08:15:34.199Z,101802.13
2022-10-15T08:19:36.569Z,101794.69
2022-10-15T08:23:38.510Z,101794.03
2022-10-15T08:27:38.810Z,101790.91
2022-10-15T08:31:38.728Z,101771.78
2022-10-15T08:35:47.098Z,101790.59
2022-10-15T08:39:49.031Z,101775.63
2022-10-15T08:43:49.472Z,101792.41
2022-10-15T08:47:53.361Z,101793.53
2022-10-15T08:51:57.259Z,101800.38
2022-10-15T08:56:05.277Z,101758.28
2022-10-15T09:00:07.970Z,101797.84
2022-10-15T09:04:19.516Z,101804.75
2022-10-15T09:08:27.868Z,101807.31
2022-10-15T09:12:44.390Z,101805.63
2022-10-15T09:16:46.358Z,101771.56
2022-10-15T09:20:46.386Z,101788.78
2022-10-15T09:24:46.411Z,101792.53
2022-10-15T09:28:56.379Z,101782.22
2022-10-15T09:33:02.242Z,101768.13
2022-10-15T09:37:08.103Z,101758.50
2022-10-15T09:41:22.170Z,101779.63
2022-10-15T09:45:25.976Z,101725.06
2022-10-15T09:49:34.009Z,101766.38
2022-10-15T09:53:47.236Z,101782.22
2022-10-15T09:57:52.378Z,101778.63
2022-10-15T10:02:02.627Z,101774.25
2022-10-15T10:06:05.694Z,101778.72
2022-10-15T10:10:25.694Z,101773.47
2022-10-15T10:14:29.559Z,101772.59
2022-10-15T10:18:31.785Z,101767.28
2022-10-15T10:22:46.595Z,101759.31
2022-10-15T10:26:51.183Z,101744.19
2022-10-15T10:30:56.023Z,101746.63
2022-10-15T10:34:58.158Z,101743.66
2022-10-15T10:39:02.396Z,101744.56
2022-10-15T10:43:21.242Z,101742.09
2022-10-15T10:47:24.888Z,101738.66
2022-10-15T10:51:30.753Z,101730.72
2022-10-15T10:55:39.812Z,101739.53
2022-10-15T10:59:46.935Z,101732.44
2022-10-15T11:03:50.148Z,101691.00
2022-10-15T11:08:02.727Z,101723.19
2022-10-15T11:12:21.070Z,101690.53
2022-10-15T11:16:32.332Z,101724.09
2022-10-15T11:20:56.276Z,101681.16
2022-10-15T11:25:14.892Z,101654.75
2022-10-15T11:29:27.372Z,101705.63
2022-10-15T11:33:46.501Z,101699.50
2022-10-15T11:37:58.471Z,101698.47
2022-10-15T11:42:06.691Z,101699.28
2022-10-15T11:46:20.846Z,101690.63
2022-10-15T11:50:31.726Z,101635.22
2022-10-15T11:54:45.887Z,101688.47
2022-10-15T12:03:06.559Z,101653.28
2022-10-15T12:07:15.771Z,101645.28
2022-10-15T12:11:26.208Z,101669.09
2022-10-15T12:15:36.070Z,101672.06
2022-10-15T12:19:42.716Z,101666.06
2022-10-15T12:23:44.266Z,101673.97
2022-10-15T12:27:44.136Z,101678.44
2022-10-15T12:31:55.981Z,101680.28
2022-10-15T12:36:11.347Z,101684.56
2022-10-15T12:40:29.223Z,101688.88
2022-10-15T12:44:32.711Z,101684.59
2022-10-15T12:48:37.959Z,101687.88
2022-10-15T12:52:57.450Z,101649.69
2022-10-15T12:56:57.169Z,101692.75
2022-10-15T13:00:57.025Z,101686.63
2022-10-15T13:05:00.057Z,101670.28
2022-10-15T13:09:07.804Z,101634.16
2022-10-15T13:13:14.184Z,101643.66
2022-10-15T13:17:21.179Z,101667.56
2022-10-15T13:21:23.223Z,101684.56
2022-10-15T13:25:22.940Z,101689.63
2022-10-15T13:29:24.838Z,101685.97
2022-10-15T13:33:24.731Z,101695.19
2022-10-15T13:37:34.167Z,101696.53
2022-10-15T13:41:38.014Z,101680.28
2022-10-15T13:45:37.612Z,101698.03
2022-10-15T13:49:37.429Z,101697.31
2022-10-15T13:53:42.137Z,101695.69
2022-10-15T14:01:55.261Z,101699.47
2022-10-15T14:05:56.408Z,101693.22
2022-10-15T14:09:58.086Z,101692.22
2022-10-15T14:13:58.924Z,101688.75
2022-10-15T14:17:58.773Z,101694.91
2022-10-15T14:21:59.535Z,101679.97
2022-10-15T14:26:03.893Z,101688.84
2022-10-15T14:30:03.206Z,101686.31
2022-10-15T14:34:02.911Z,101687.19
2022-10-15T14:38:07.362Z,101673.09
2022-10-15T14:42:27.817Z,101630.06
2022-10-15T14:46:27.868Z,101671.44
2022-10-15T14:50:31.096Z,101661.72
2022-10-15T14:54:40.418Z,101678.44
2022-10-15T14:58:42.255Z,101670.53
2022-10-15T15:02:42.177Z,101680.28
2022-10-15T15:06:41.629Z,101677.63
2022-10-15T15:10:41.388Z,101675.72
2022-10-15T15:14:43.123Z,101673.09
2022-10-15T15:18:43.559Z,101674.97
2022-10-15T15:22:44.305Z,101674.00
2022-10-15T15:26:43.809Z,101674.84
2022-10-15T15:30:46.733Z,101679.25
2022-10-15T15:34:46.211Z,101615.16
2022-10-15T15:38:46.261Z,101681.81
2022-10-15T15:42:46.524Z,101690.72
2022-10-15T15:46:51.051Z,101687.09
2022-10-15T15:50:51.053Z,101688.88
2022-10-15T15:54:50.772Z,101695.03
2022-10-15T15:58:50.636Z,101685.41
2022-10-15T16:02:55.453Z,101692.63
2022-10-15T16:06:57.722Z,101701.41
2022-10-15T16:10:57.224Z,101714.59
2022-10-15T16:19:12.442Z,101711.13
2022-10-15T16:23:12.073Z,101691.28
2022-10-15T16:27:11.767Z,101722.28
2022-10-15T16:31:19.169Z,101738.19
2022-10-15T16:35:20.812Z,101736.47
2022-10-15T16:39:20.626Z,101747.06
2022-10-15T16:43:19.421Z,101747.94
2022-10-15T16:47:19.014Z,101748.84
2022-10-15T16:51:20.725Z,101750.56
2022-10-15T16:55:20.311Z,101754.97
2022-10-15T16:59:21.606Z,101756.75
2022-10-15T17:03:21.138Z,101764.66
2022-10-15T17:07:23.252Z,101712.69
2022-10-15T17:11:25.536Z,101781.25
2022-10-15T17:15:26.671Z,101782.97
2022-10-15T17:19:30.496Z,101789.00
2022-10-15T17:23:35.044Z,101781.84
2022-10-15T17:27:35.379Z,101788.78
2022-10-15T17:31:35.154Z,101785.13
2022-10-15T17:35:38.683Z,101788.47
2022-10-15T17:39:43.270Z,101792.84
2022-10-15T17:43:42.716Z,101793.72
2022-10-15T17:47:42.289Z,101798.16
2022-10-15T17:51:41.875Z,101790.22
2022-10-15T17:55:43.567Z,101803.31
2022-10-15T17:59:43.910Z,101801.50
2022-10-15T18:03:48.573Z,101809.25
2022-10-15T18:07:48.789Z,101808.31
2022-10-15T18:11:50.382Z,101817.06
2022-10-15T18:15:51.302Z,101813.50
2022-10-15T18:19:50.767Z,101815.19
2022-10-15T18:23:49.924Z,101825.66
2022-10-15T18:27:50.978Z,101824.72
2022-10-15T18:31:56.265Z,101811.47
2022-10-15T18:36:06.312Z,101825.56
2022-10-15T18:40:06.580Z,101835.69
2022-10-15T18:44:10.692Z,101840.66
2022-10-15T18:48:10.323Z,101842.41
2022-10-15T18:52:21.449Z,101794.47
2022-10-15T18:56:28.008Z,101843.78
2022-10-15T19:00:31.022Z,101848.00
2022-10-15T19:04:30.594Z,101856.69
2022-10-15T19:08:35.200Z,101862.06
2022-10-15T19:12:34.828Z,101869.16
2022-10-15T19:16:37.061Z,101867.47
2022-10-15T19:20:40.293Z,101871.19
2022-10-15T19:24:42.590Z,101876.34
2022-10-15T19:28:42.549Z,101876.22
2022-10-15T19:32:48.391Z,101881.41
2022-10-15T19:36:50.345Z,101880.38
2022-10-15T19:40:51.725Z,101883.66
2022-10-15T19:44:51.323Z,101868.19
2022-10-15T19:48:53.063Z,101877.47
2022-10-15T19:52:54.637Z,101883.69
2022-10-15T19:56:53.940Z,101883.69
2022-10-15T20:00:55.171Z,101893.09
2022-10-15T20:04:57.056Z,101893.06
2022-10-15T20:08:56.876Z,101891.38
2022-10-15T20:12:56.488Z,101894.69
2022-10-15T20:16:55.991Z,101885.31
2022-10-15T20:20:57.351Z,101902.91
2022-10-15T20:24:57.360Z,101902.94
2022-10-15T20:28:57.160Z,101903.72
2022-10-15T20:32:57.035Z,101904.53
2022-10-15T20:36:58.289Z,101908.66
2022-10-15T20:40:57.874Z,101905.31
2022-10-15T20:44:56.923Z,101890.53
2022-10-15T20:48:57.868Z,101896.66
2022-10-15T20:53:00.967Z,101900.97
2022-10-15T20:57:00.058Z,101902.28
2022-10-15T21:00:59.745Z,101901.25
2022-10-15T21:04:59.417Z,101895.19
2022-10-15T21:09:01.081Z,101894.78
2022-10-15T21:13:00.754Z,101902.09
2022-10-15T21:16:59.783Z,101897.69
2022-10-15T21:21:03.887Z,101906.16
2022-10-15T21:25:06.104Z,101909.53
2022-10-15T21:29:10.951Z,101907.16
2022-10-15T21:33:10.624Z,101912.66
2022-10-15T21:37:09.796Z,101911.66
2022-10-15T21:41:11.540Z,101913.22
2022-10-15T21:45:12.173Z,101914.09
2022-10-15T21:49:13.556Z,101916.09
2022-10-15T21:53:13.259Z,101913.03
2022-10-15T21:57:14.852Z,101914.63
2022-10-15T22:01:19.046Z,101911.03
2022-10-15T22:05:19.338Z,101913.19
2022-10-15T22:09:20.333Z,101912.06
2022-10-15T22:13:22.122Z,101914.34
2022-10-15T22:17:21.617Z,101915.81
2022-10-15T22:21:22.853Z,101864.28
2022-10-15T22:25:22.395Z,101913.47
2022-10-15T22:29:25.979Z,101924.50
2022-10-15T22:33:25.808Z,101890.38
2022-10-15T22:37:25.341Z,101927.47
2022-10-15T22:41:24.877Z,101927.56
2022-10-15T22:45:26.581Z,101924.09
2022-10-15T22:49:25.775Z,101935.94
2022-10-15T22:53:25.419Z,101951.78
2022-10-15T22:57:24.969Z,101952.00
2022-10-15T23:01:27.883Z,101951.25
2022-10-15T23:05:27.381Z,101958.97
2022-10-15T23:09:26.544Z,101958.53
2022-10-15T23:13:26.145Z,101961.56
2022-10-15T23:17:28.025Z,101957.78
2022-10-15T23:21:31.672Z,101960.47
2022-10-15T23:25:30.862Z,101968.22
2022-10-15T23:29:30.606Z,101960.66
2022-10-15T23:33:32.231Z,101969.06
2022-10-15T23:37:31.781Z,101965.25
2022-10-15T23:41:31.505Z,101971.31
2022-10-15T23:45:31.944Z,101983.03
2022-10-15T23:49:33.571Z,101984.34
2022-10-15T23:53:34.510Z,101992.34
2022-10-15T23:57:33.533Z,101997.09
